Latest Weather Observations for Keith West

IDS60801

Issued at 3:05 pm CST Wednesday 23 July 2014 (issued every 30 minutes, with the page automatically refreshed every 10 minutes)

About weather observations | Map of weather stations | Latest weather observations for SA | Other Formats
Station Details ID: 025557 Name: MUNKORA Lat: -36.11 Lon: 140.33 Height: 27.0 m
Data from the previous 72 hours. | See also: Recent months for locations in South Australia
Date/Time
CST
Temp
°C
App
Temp
°C
Dew
Point
Rel
Hum
%
Delta-T
°C
Wind Press
QNH
hPa
Press
MSL
hPa
Rain
since 9 am
mm
Dir
 
Spd
km/h
Gust
km/h
Spd
kts
Gust
kts
23/03:00pm 13.6 9.5 6.2 61 3.5 N 17 24 9 13 1015.7 1015.7 0.0
23/02:30pm 14.1 9.9 5.7 57 4.0 N 17 28 9 15 1015.7 1015.7 0.0
23/02:00pm 13.8 10.4 5.7 58 3.8 N 13 17 7 9 1016.0 - 0.0
23/01:30pm 13.2 9.3 5.4 59 3.6 N 15 19 8 10 1016.4 1016.5 0.0
23/01:00pm 12.9 8.6 5.1 59 3.6 N 17 22 9 12 1016.9 - 0.0
23/12:30pm 13.1 8.7 5.0 58 3.7 N 17 22 9 12 1017.7 1017.8 0.0
23/12:00pm 12.3 7.3 3.8 56 3.8 N 19 26 10 14 1018.5 1018.6 0.0
23/11:30am 12.1 7.3 4.8 61 3.3 N 19 26 10 14 1019.3 1019.4 0.0
23/11:00am 10.3 5.5 4.5 67 2.6 N 19 28 10 15 1019.7 - 0.0
23/10:30am 8.2 3.7 4.4 77 1.7 N 17 22 9 12 1020.2 1020.3 0.0
23/10:00am 7.5 2.4 4.1 79 1.5 N 20 28 11 15 1020.8 - 0.0
23/09:30am 6.8 2.7 4.1 83 1.2 N 15 20 8 11 1020.8 1020.9 0.0
23/09:00am 6.2 2.0 3.9 85 1.0 N 15 22 8 12 1020.9 1021.0 0.0
23/08:30am 5.6 2.5 3.4 86 0.9 N 9 17 5 9 1021.1 1021.2 0.0
23/08:00am 5.3 1.8 3.3 87 0.8 N 11 15 6 8 1021.2 - 0.0
23/07:30am 5.0 1.3 2.4 83 1.0 N 11 13 6 7 1021.2 1021.3 0.0
23/07:00am 5.2 1.4 1.9 79 1.3 N 11 19 6 10 1021.0 - 0.0
23/06:30am 5.1 1.4 2.1 81 1.2 N 11 15 6 8 1020.9 1021.0 0.0
23/06:00am 5.2 1.5 2.6 83 1.1 NNE 11 15 6 8 1020.8 1020.9 0.0
23/05:30am 5.2 0.9 3.1 86 0.9 N 15 20 8 11 1021.0 1021.1 0.0
23/05:00am 5.4 1.5 3.4 87 0.8 N 13 19 7 10 1021.1 - 0.0
23/04:30am 5.2 1.6 3.1 86 0.9 N 11 15 6 8 1021.3 1021.4 0.0
23/04:00am 5.0 1.7 2.7 85 0.9 N 9 11 5 6 1021.5 - 0.0
23/03:30am 5.3 2.4 2.8 84 1.0 N 7 13 4 7 1021.4 1021.5 0.0
23/03:00am 5.3 2.5 3.0 85 0.9 N 7 11 4 6 1021.6 1021.7 0.0
23/02:30am 5.5 1.5 3.0 84 1.0 N 13 17 7 9 1021.6 1021.7 0.0
23/02:00am 5.7 1.4 3.2 84 1.0 N 15 17 8 9 1021.7 - 0.0
23/01:30am 6.0 2.1 3.3 83 1.1 N 13 17 7 9 1021.9 1022.0 0.0
23/01:00am 5.8 1.9 3.3 84 1.0 N 13 17 7 9 1022.1 - 0.0
23/12:30am 6.0 1.7 3.3 83 1.1 N 15 20 8 11 1022.1 1022.2 0.0
23/12:00am 6.1 1.8 3.3 82 1.2 N 15 19 8 10 1022.4 1022.5 0.0
 
Date/Time
CST
Temp
°C
App
Temp
°C
Dew
Point
Rel
Hum
%
Delta-T
°C
Wind Press
QNH
hPa
Press
MSL
hPa
Rain
since 9 am
mm
Dir
 
Spd
km/h
Gust
km/h
Spd
kts
Gust
kts
22/11:30pm 6.1 2.1 3.1 81 1.2 N 13 17 7 9 1022.5 1022.6 0.0
22/11:00pm 6.8 2.1 3.2 78 1.5 N 17 20 9 11 1022.7 - 0.0
22/10:30pm 6.8 2.6 3.6 80 1.4 N 15 19 8 10 1022.7 1022.8 0.0
22/10:00pm 7.3 3.5 3.9 79 1.5 N 13 19 7 10 1023.0 - 0.0
22/09:30pm 7.8 3.7 4.2 78 1.6 N 15 19 8 10 1023.0 1023.1 0.0
22/09:00pm 8.0 3.9 4.6 79 1.5 NNE 15 19 8 10 1023.1 1023.2 0.0
22/08:30pm 7.8 3.8 4.7 81 1.4 NNE 15 19 8 10 1023.1 1023.2 0.0
22/08:00pm 7.7 4.0 4.3 79 1.5 NNE 13 17 7 9 1023.3 - 0.0
22/07:30pm 7.7 4.4 4.3 79 1.5 NNE 11 13 6 7 1023.5 1023.6 0.0
22/07:00pm 8.7 5.4 4.3 74 1.9 N 11 13 6 7 1023.3 - 0.0
22/06:30pm 9.1 6.5 4.3 72 2.1 N 7 9 4 5 1023.5 1023.6 0.0
22/06:00pm 9.6 6.7 4.4 70 2.3 N 9 11 5 6 1022.7 1022.8 0.0
22/05:30pm 10.6 7.6 4.3 65 2.8 NNE 9 11 5 6 1022.4 1022.5 0.0
22/05:00pm 12.5 9.8 5.4 62 3.3 N 9 13 5 7 1022.5 - 0.0
22/04:30pm 14.5 11.2 4.8 52 4.5 N 11 15 6 8 1022.5 1022.6 0.0
22/04:00pm 15.2 12.0 4.9 50 4.8 N 11 15 6 8 1022.4 - 0.0
22/03:30pm 15.7 12.7 6.2 53 4.6 NNE 11 15 6 8 1022.1 1022.2 0.0
22/03:00pm 15.8 13.3 6.5 54 4.5 NE 9 17 5 9 1022.4 1022.5 0.0
22/02:30pm 15.9 13.9 7.1 56 4.3 N 7 13 4 7 1022.4 1022.5 0.0
22/02:00pm 15.9 13.9 6.9 55 4.4 N 7 13 4 7 1022.5 - 0.0
22/01:30pm 15.8 14.1 5.7 51 4.8 N 4 11 2 6 1022.7 1022.8 0.0
22/01:00pm 15.5 13.1 5.1 50 4.9 N 7 17 4 9 1023.2 - 0.0
22/12:30pm 14.9 12.6 5.7 54 4.4 N 7 11 4 6 1023.8 1023.9 0.0
22/12:00pm 14.2 12.1 6.6 60 3.7 NNW 7 11 4 6 1024.3 1024.4 0.0
22/11:30am 13.4 11.2 6.3 62 3.4 N 7 11 4 6 1024.8 1024.9 0.0
22/11:00am 12.1 9.0 5.5 64 3.1 NNW 11 17 6 9 1025.3 - 0.0
22/10:30am 10.8 8.2 6.2 73 2.1 NNW 9 13 5 7 1025.7 1025.8 0.0
22/10:00am 9.4 6.7 5.4 76 1.8 NNW 9 13 5 7 1025.8 - 0.0
22/09:30am 8.2 5.4 5.3 82 1.3 N 9 13 5 7 1025.7 1025.8 0.0
22/09:00am 6.4 3.5 4.4 87 0.9 N 9 11 5 6 1025.5 1025.6 0.4
22/08:30am 5.0 2.4 4.0 93 0.4 N 7 9 4 5 1025.6 1025.7 0.4
22/08:00am 3.1 0.4 2.4 95 0.3 N 6 7 3 4 1025.4 - 0.4
22/07:30am 2.0 -0.5 1.3 95 0.3 NNE 4 6 2 3 1025.3 1025.4 0.4
22/07:00am 2.0 -1.0 1.1 94 0.3 N 6 6 3 3 1025.0 - 0.4
22/06:30am 2.3 0.1 1.3 93 0.4 N 2 4 1 2 1024.7 1024.8 0.4
22/06:00am 3.6 1.7 2.6 93 0.4 N 2 4 1 2 1024.5 1024.6 0.4
22/05:30am 3.6 0.7 2.6 93 0.4 N 7 7 4 4 1024.1 1024.2 0.4
22/05:00am 3.4 1.4 2.2 92 0.5 NW 2 4 1 2 1024.1 - 0.2
22/04:30am 4.1 0.9 2.9 92 0.5 NNW 9 11 5 6 1024.0 1024.1 0.2
22/04:00am 4.5 1.0 3.5 93 0.4 N 11 15 6 8 1023.8 - 0.2
22/03:30am 4.1 1.3 2.9 92 0.5 N 7 11 4 6 1023.7 1023.8 0.2
22/03:00am 4.2 1.4 3.0 92 0.5 N 7 9 4 5 1023.8 1023.9 0.2
22/02:30am 4.0 1.3 2.7 91 0.5 NNW 6 9 3 5 1024.0 1024.1 0.2
22/02:00am 4.7 1.9 3.4 91 0.5 N 7 11 4 6 1024.0 - 0.2
22/01:30am 4.7 2.1 3.2 90 0.6 N 6 9 3 5 1023.9 1024.0 0.2
22/01:00am 5.3 2.2 3.8 90 0.6 N 9 15 5 8 1023.9 - 0.2
22/12:30am 5.5 1.7 3.8 89 0.7 N 13 17 7 9 1023.8 1023.9 0.2
22/12:00am 5.8 2.0 4.0 88 0.8 N 13 17 7 9 1023.8 1023.9 0.2
 
Date/Time
CST
Temp
°C
App
Temp
°C
Dew
Point
Rel
Hum
%
Delta-T
°C
Wind Press
QNH
hPa
Press
MSL
hPa
Rain
since 9 am
mm
Dir
 
Spd
km/h
Gust
km/h
Spd
kts
Gust
kts
21/11:30pm 6.1 2.3 4.1 87 0.8 N 13 19 7 10 1023.8 1023.9 0.2
21/11:00pm 6.2 2.5 4.2 87 0.9 N 13 19 7 10 1023.9 - 0.2
21/10:30pm 6.1 2.8 4.4 89 0.7 N 11 15 6 8 1023.9 1024.0 0.2
21/10:00pm 4.7 1.9 3.4 91 0.5 NNE 7 7 4 4 1023.9 - 0.2
21/09:30pm 4.8 2.2 3.3 90 0.6 NE 6 7 3 4 1024.0 1024.1 0.2
21/09:00pm 4.9 2.1 3.2 89 0.7 NE 7 7 4 4 1023.8 1023.9 0.2
21/08:30pm 5.7 3.2 3.7 87 0.8 NNE 6 7 3 4 1023.7 1023.8 0.2
21/08:00pm 6.0 3.3 3.8 86 0.9 NNE 7 9 4 5 1023.5 - 0.2
21/07:30pm 7.1 4.7 4.2 82 1.2 NNE 6 9 3 5 1023.3 1023.4 0.2
21/07:00pm 8.1 5.9 5.2 82 1.3 NNE 6 6 3 3 1023.3 - 0.2
21/06:30pm 7.8 5.5 4.6 80 1.4 NNE 6 6 3 3 1023.1 1023.2 0.2
21/06:00pm 8.7 6.6 5.6 81 1.4 NNE 6 7 3 4 1022.7 1022.8 0.2
21/05:30pm 9.7 7.5 6.2 79 1.6 NNE 7 7 4 4 1022.3 1022.4 0.2
21/05:00pm 11.1 8.9 6.3 72 2.3 NNE 7 9 4 5 1022.0 - 0.2
21/04:30pm 12.4 10.4 6.9 69 2.6 N 7 11 4 6 1021.9 1022.0 0.2
21/04:00pm 12.3 9.8 6.6 68 2.7 N 9 11 5 6 1022.1 - 0.2
21/03:30pm 13.1 9.7 5.8 61 3.4 NNW 13 19 7 10 1022.0 1022.1 0.2
21/03:00pm 13.7 11.0 5.6 58 3.8 NNW 9 17 5 9 1021.8 1021.9 0.2
21/02:30pm 14.2 11.0 5.3 55 4.2 NNW 11 15 6 8 1022.0 1022.1 0.2
21/02:00pm 14.3 11.6 5.7 56 4.1 NNW 9 13 5 7 1022.2 - 0.2
21/01:30pm 13.4 10.8 6.3 62 3.4 NNW 9 13 5 7 1022.4 1022.5 0.0
21/01:00pm 12.8 9.5 6.2 64 3.1 NNW 13 17 7 9 1022.8 - 0.0
21/12:30pm 12.3 8.9 5.9 65 3.0 NNW 13 17 7 9 1023.2 1023.3 0.0
21/12:00pm 12.3 9.5 6.8 69 2.6 N 11 17 6 9 1023.6 1023.7 0.0
21/11:30am 11.5 7.8 6.2 70 2.5 NNW 15 22 8 12 1024.1 1024.2 0.0
21/11:00am 12.0 8.0 6.5 69 2.6 N 17 20 9 11 1024.3 - 0.0
21/10:30am 9.8 6.1 6.2 78 1.7 N 15 20 8 11 1024.6 1024.7 0.0
21/10:00am 8.7 4.4 5.4 80 1.5 N 17 24 9 13 1024.8 - 0.0
21/09:30am 8.1 4.3 5.6 84 1.1 N 15 20 8 11 1025.0 1025.1 0.0
21/09:00am 7.0 3.0 5.0 87 0.9 N 15 22 8 12 1025.0 1025.1 0.0
21/08:30am 6.3 2.2 4.6 89 0.7 N 15 19 8 10 1024.7 1024.8 0.0
21/08:00am 5.8 1.7 4.3 90 0.6 N 15 19 8 10 1024.6 - 0.0
21/07:30am 5.5 1.3 4.0 90 0.6 N 15 17 8 9 1024.5 1024.6 0.0
21/07:00am 5.4 1.6 3.9 90 0.6 N 13 19 7 10 1024.4 - 0.0
21/06:30am 5.4 2.0 3.9 90 0.6 N 11 17 6 9 1024.2 1024.3 0.0
21/06:00am 5.8 1.3 4.3 90 0.6 N 17 20 9 11 1024.0 1024.1 0.0
21/05:30am 5.7 1.6 4.3 91 0.6 N 15 20 8 11 1023.8 1023.9 0.0
21/05:00am 5.8 1.7 4.3 90 0.6 N 15 20 8 11 1023.9 - 0.0
21/04:30am 6.0 1.9 4.3 89 0.7 N 15 20 8 11 1023.7 1023.8 0.0
21/04:00am 6.0 1.6 4.5 90 0.6 N 17 19 9 10 1023.7 - 0.0
21/03:30am 6.3 1.9 4.5 88 0.8 N 17 20 9 11 1023.8 1023.9 0.0
21/03:00am 6.5 2.4 4.3 86 0.9 N 15 19 8 10 1023.8 1023.9 0.0
21/02:30am 6.7 3.4 4.5 86 0.9 N 11 17 6 9 1023.9 1024.0 0.0
21/02:00am 6.5 2.8 4.5 87 0.9 N 13 19 7 10 1024.0 - 0.0
21/01:30am 6.3 2.2 4.5 88 0.8 N 15 20 8 11 1024.3 1024.4 0.0
21/01:00am 5.9 2.5 4.2 89 0.7 N 11 15 6 8 1024.5 - 0.0
21/12:30am 6.1 2.4 4.4 89 0.7 N 13 20 7 11 1025.0 1025.1 0.0
21/12:00am 6.0 2.3 4.5 90 0.6 N 13 17 7 9 1025.2 1025.3 0.0
 
Date/Time
CST
Temp
°C
App
Temp
°C
Dew
Point
Rel
Hum
%
Delta-T
°C
Wind Press
QNH
hPa
Press
MSL
hPa
Rain
since 9 am
mm
Dir
 
Spd
km/h
Gust
km/h
Spd
kts
Gust
kts
20/11:30pm 5.6 1.9 4.4 92 0.5 N 13 17 7 9 1025.4 1025.5 0.0
20/11:00pm 4.6 1.1 3.6 93 0.4 NNE 11 13 6 7 1025.6 - 0.0
20/10:30pm 3.9 1.2 2.9 93 0.4 NNE 6 7 3 4 1025.8 1025.9 0.0
20/10:00pm 3.4 1.0 2.2 92 0.5 NE 4 6 2 3 1025.9 - 0.0
20/09:30pm 4.3 1.1 3.3 93 0.4 NE 9 9 5 5 1025.7 1025.8 0.0
20/09:00pm 4.4 2.2 3.2 92 0.5 N 4 4 2 2 1025.7 1025.8 0.0
20/08:30pm 3.6 1.2 2.0 89 0.6 N 4 6 2 3 1025.8 1025.9 0.0
20/08:00pm 5.1 2.5 3.3 88 0.7 WNW 6 6 3 3 1025.8 - 0.0
20/07:30pm 5.6 2.8 3.4 86 0.9 N 7 9 4 5 1025.8 1025.9 0.0
20/07:00pm 6.5 3.5 4.2 85 1.0 N 9 9 5 5 1025.7 - 0.0
20/06:30pm 7.3 5.3 4.6 83 1.2 N 4 6 2 3 1025.5 1025.6 0.0
20/06:00pm 7.7 4.8 4.8 82 1.3 NNE 9 11 5 6 1025.4 1025.5 0.0
20/05:30pm 8.0 5.6 5.3 83 1.2 NNE 7 9 4 5 1025.2 1025.3 0.0
20/05:00pm 9.1 6.8 5.5 78 1.6 ENE 7 9 4 5 1025.0 - 0.0
20/04:30pm 11.1 8.2 6.3 72 2.2 NE 11 17 6 9 1025.1 1025.2 0.0
20/04:00pm 12.1 9.2 6.4 68 2.7 NE 11 15 6 8 1025.2 - 0.0
20/03:30pm 11.9 9.6 5.5 65 3.0 NNE 7 13 4 7 1025.4 1025.5 0.0

Other Formats:

Comma delimited format used in spreadsheet applications
http://www.bom.gov.au/fwo/IDS60801/IDS60801.95815.axf

JavaScript Object Notation format (JSON) in row-major order
http://www.bom.gov.au/fwo/IDS60801/IDS60801.95815.json